sensor_id;sensor_type;location;lat;lon;timestamp;P1;durP1;ratioP1;P2;durP2;ratioP2
10418;SDS011;5256;48.728;9.140;2023-06-14T00:00:37;0.30;;;0.30;;
10418;SDS011;5256;48.728;9.140;2023-06-14T00:03:07;0.40;;;0.40;;
10418;SDS011;5256;48.728;9.140;2023-06-14T00:05:35;0.50;;;0.50;;
10418;SDS011;5256;48.728;9.140;2023-06-14T00:08:05;0.40;;;0.40;;
10418;SDS011;5256;48.728;9.140;2023-06-14T00:10:33;0.30;;;0.30;;
10418;SDS011;5256;48.728;9.140;2023-06-14T00:13:00;0.40;;;0.40;;
10418;SDS011;5256;48.728;9.140;2023-06-14T00:15:26;0.43;;;0.43;;
10418;SDS011;5256;48.728;9.140;2023-06-14T00:17:52;0.37;;;0.37;;
10418;SDS011;5256;48.728;9.140;2023-06-14T00:20:19;0.40;;;0.40;;
10418;SDS011;5256;48.728;9.140;2023-06-14T00:22:45;0.30;;;0.30;;
10418;SDS011;5256;48.728;9.140;2023-06-14T00:25:11;0.37;;;0.37;;
10418;SDS011;5256;48.728;9.140;2023-06-14T00:27:37;0.30;;;0.30;;
10418;SDS011;5256;48.728;9.140;2023-06-14T00:30:02;0.40;;;0.40;;
10418;SDS011;5256;48.728;9.140;2023-06-14T00:32:28;0.50;;;0.50;;
10418;SDS011;5256;48.728;9.140;2023-06-14T00:34:54;0.30;;;0.30;;
10418;SDS011;5256;48.728;9.140;2023-06-14T00:37:20;0.40;;;0.40;;
10418;SDS011;5256;48.728;9.140;2023-06-14T00:39:45;0.30;;;0.30;;
10418;SDS011;5256;48.728;9.140;2023-06-14T00:42:11;0.30;;;0.30;;
10418;SDS011;5256;48.728;9.140;2023-06-14T00:44:47;0.50;;;0.50;;
10418;SDS011;5256;48.728;9.140;2023-06-14T00:47:13;0.37;;;0.37;;
10418;SDS011;5256;48.728;9.140;2023-06-14T00:49:38;0.40;;;0.40;;
10418;SDS011;5256;48.728;9.140;2023-06-14T00:52:04;0.30;;;0.30;;
10418;SDS011;5256;48.728;9.140;2023-06-14T00:54:31;0.40;;;0.40;;
10418;SDS011;5256;48.728;9.140;2023-06-14T00:56:56;0.40;;;0.40;;
10418;SDS011;5256;48.728;9.140;2023-06-14T00:59:22;0.40;;;0.40;;
10418;SDS011;5256;48.728;9.140;2023-06-14T01:01:48;0.50;;;0.50;;
10418;SDS011;5256;48.728;9.140;2023-06-14T01:04:13;0.40;;;0.40;;
10418;SDS011;5256;48.728;9.140;2023-06-14T01:12:18;0.30;;;0.30;;
10418;SDS011;5256;48.728;9.140;2023-06-14T01:14:50;0.30;;;0.30;;
10418;SDS011;5256;48.728;9.140;2023-06-14T01:17:18;0.30;;;0.30;;
10418;SDS011;5256;48.728;9.140;2023-06-14T01:19:45;0.37;;;0.37;;
10418;SDS011;5256;48.728;9.140;2023-06-14T01:22:11;0.30;;;0.30;;
10418;SDS011;5256;48.728;9.140;2023-06-14T01:24:37;0.33;;;0.33;;
10418;SDS011;5256;48.728;9.140;2023-06-14T01:27:04;0.40;;;0.40;;
10418;SDS011;5256;48.728;9.140;2023-06-14T01:29:32;0.40;;;0.40;;
10418;SDS011;5256;48.728;9.140;2023-06-14T01:31:58;0.40;;;0.40;;
10418;SDS011;5256;48.728;9.140;2023-06-14T01:34:25;0.50;;;0.50;;
10418;SDS011;5256;48.728;9.140;2023-06-14T01:36:53;0.40;;;0.40;;
10418;SDS011;5256;48.728;9.140;2023-06-14T01:39:22;0.30;;;0.30;;
10418;SDS011;5256;48.728;9.140;2023-06-14T01:41:48;0.50;;;0.50;;
10418;SDS011;5256;48.728;9.140;2023-06-14T01:44:14;0.40;;;0.40;;
10418;SDS011;5256;48.728;9.140;2023-06-14T01:46:42;0.40;;;0.40;;
10418;SDS011;5256;48.728;9.140;2023-06-14T01:49:08;0.50;;;0.50;;
10418;SDS011;5256;48.728;9.140;2023-06-14T01:51:35;0.37;;;0.37;;
10418;SDS011;5256;48.728;9.140;2023-06-14T01:54:01;0.30;;;0.30;;
10418;SDS011;5256;48.728;9.140;2023-06-14T01:56:26;0.40;;;0.40;;
10418;SDS011;5256;48.728;9.140;2023-06-14T01:58:52;0.33;;;0.33;;
10418;SDS011;5256;48.728;9.140;2023-06-14T02:01:18;0.40;;;0.40;;
10418;SDS011;5256;48.728;9.140;2023-06-14T02:03:46;0.40;;;0.40;;
10418;SDS011;5256;48.728;9.140;2023-06-14T02:06:12;0.40;;;0.40;;
10418;SDS011;5256;48.728;9.140;2023-06-14T02:08:38;0.40;;;0.40;;
10418;SDS011;5256;48.728;9.140;2023-06-14T02:11:05;0.40;;;0.40;;
10418;SDS011;5256;48.728;9.140;2023-06-14T02:13:30;0.30;;;0.30;;
10418;SDS011;5256;48.728;9.140;2023-06-14T02:15:56;0.47;;;0.47;;
10418;SDS011;5256;48.728;9.140;2023-06-14T02:18:22;0.40;;;0.40;;
10418;SDS011;5256;48.728;9.140;2023-06-14T02:20:48;0.40;;;0.40;;
10418;SDS011;5256;48.728;9.140;2023-06-14T02:23:13;0.47;;;0.47;;
10418;SDS011;5256;48.728;9.140;2023-06-14T02:25:39;0.30;;;0.30;;
10418;SDS011;5256;48.728;9.140;2023-06-14T02:28:05;0.40;;;0.40;;
10418;SDS011;5256;48.728;9.140;2023-06-14T02:30:31;0.40;;;0.40;;
10418;SDS011;5256;48.728;9.140;2023-06-14T02:32:56;0.40;;;0.40;;
10418;SDS011;5256;48.728;9.140;2023-06-14T02:35:22;0.40;;;0.40;;
10418;SDS011;5256;48.728;9.140;2023-06-14T02:37:51;0.50;;;0.50;;
10418;SDS011;5256;48.728;9.140;2023-06-14T02:40:17;0.40;;;0.40;;
10418;SDS011;5256;48.728;9.140;2023-06-14T02:42:43;0.40;;;0.40;;
10418;SDS011;5256;48.728;9.140;2023-06-14T02:45:09;0.40;;;0.40;;
10418;SDS011;5256;48.728;9.140;2023-06-14T02:47:35;0.40;;;0.40;;
10418;SDS011;5256;48.728;9.140;2023-06-14T02:50:00;0.50;;;0.50;;
10418;SDS011;5256;48.728;9.140;2023-06-14T02:52:27;0.40;;;0.40;;
10418;SDS011;5256;48.728;9.140;2023-06-14T02:54:53;0.30;;;0.30;;
10418;SDS011;5256;48.728;9.140;2023-06-14T02:57:19;0.40;;;0.40;;
10418;SDS011;5256;48.728;9.140;2023-06-14T02:59:45;0.30;;;0.30;;
10418;SDS011;5256;48.728;9.140;2023-06-14T03:02:11;0.40;;;0.40;;
10418;SDS011;5256;48.728;9.140;2023-06-14T03:04:36;0.40;;;0.40;;
10418;SDS011;5256;48.728;9.140;2023-06-14T03:07:02;0.30;;;0.30;;
10418;SDS011;5256;48.728;9.140;2023-06-14T03:09:37;0.30;;;0.30;;
10418;SDS011;5256;48.728;9.140;2023-06-14T03:12:03;0.50;;;0.50;;
10418;SDS011;5256;48.728;9.140;2023-06-14T03:14:31;0.40;;;0.40;;
10418;SDS011;5256;48.728;9.140;2023-06-14T03:16:57;0.40;;;0.40;;
10418;SDS011;5256;48.728;9.140;2023-06-14T03:19:23;0.43;;;0.43;;
10418;SDS011;5256;48.728;9.140;2023-06-14T03:21:49;0.40;;;0.40;;
10418;SDS011;5256;48.728;9.140;2023-06-14T03:24:15;0.40;;;0.40;;
10418;SDS011;5256;48.728;9.140;2023-06-14T03:26:43;0.30;;;0.30;;
10418;SDS011;5256;48.728;9.140;2023-06-14T03:29:09;0.40;;;0.40;;
10418;SDS011;5256;48.728;9.140;2023-06-14T03:31:34;0.40;;;0.40;;
10418;SDS011;5256;48.728;9.140;2023-06-14T03:34:00;0.30;;;0.30;;
10418;SDS011;5256;48.728;9.140;2023-06-14T03:36:26;0.50;;;0.50;;
10418;SDS011;5256;48.728;9.140;2023-06-14T03:38:53;0.40;;;0.40;;
10418;SDS011;5256;48.728;9.140;2023-06-14T03:41:19;0.40;;;0.40;;
10418;SDS011;5256;48.728;9.140;2023-06-14T03:43:45;0.40;;;0.40;;
10418;SDS011;5256;48.728;9.140;2023-06-14T03:46:10;0.30;;;0.30;;
10418;SDS011;5256;48.728;9.140;2023-06-14T03:48:36;0.30;;;0.30;;
10418;SDS011;5256;48.728;9.140;2023-06-14T03:51:02;0.40;;;0.40;;
10418;SDS011;5256;48.728;9.140;2023-06-14T03:53:27;0.40;;;0.40;;
10418;SDS011;5256;48.728;9.140;2023-06-14T03:55:54;0.50;;;0.50;;
10418;SDS011;5256;48.728;9.140;2023-06-14T03:58:20;0.40;;;0.40;;
10418;SDS011;5256;48.728;9.140;2023-06-14T04:00:45;0.50;;;0.50;;
10418;SDS011;5256;48.728;9.140;2023-06-14T04:03:11;0.50;;;0.50;;
10418;SDS011;5256;48.728;9.140;2023-06-14T04:05:44;0.40;;;0.40;;
10418;SDS011;5256;48.728;9.140;2023-06-14T04:08:14;0.40;;;0.40;;
10418;SDS011;5256;48.728;9.140;2023-06-14T04:10:40;0.40;;;0.40;;
10418;SDS011;5256;48.728;9.140;2023-06-14T04:13:06;0.40;;;0.40;;
10418;SDS011;5256;48.728;9.140;2023-06-14T04:15:32;0.37;;;0.37;;
10418;SDS011;5256;48.728;9.140;2023-06-14T04:17:58;0.40;;;0.40;;
10418;SDS011;5256;48.728;9.140;2023-06-14T04:20:24;0.30;;;0.30;;
10418;SDS011;5256;48.728;9.140;2023-06-14T04:22:50;0.37;;;0.37;;
10418;SDS011;5256;48.728;9.140;2023-06-14T04:25:16;0.30;;;0.30;;
10418;SDS011;5256;48.728;9.140;2023-06-14T04:27:42;0.30;;;0.30;;
10418;SDS011;5256;48.728;9.140;2023-06-14T04:30:08;0.40;;;0.40;;
10418;SDS011;5256;48.728;9.140;2023-06-14T04:32:34;0.40;;;0.40;;
10418;SDS011;5256;48.728;9.140;2023-06-14T04:35:03;0.30;;;0.30;;
10418;SDS011;5256;48.728;9.140;2023-06-14T04:37:30;0.23;;;0.23;;
10418;SDS011;5256;48.728;9.140;2023-06-14T04:39:56;0.20;;;0.20;;
10418;SDS011;5256;48.728;9.140;2023-06-14T04:42:22;0.30;;;0.30;;
10418;SDS011;5256;48.728;9.140;2023-06-14T04:44:50;0.20;;;0.20;;
10418;SDS011;5256;48.728;9.140;2023-06-14T04:47:17;0.30;;;0.30;;
10418;SDS011;5256;48.728;9.140;2023-06-14T04:49:43;0.30;;;0.30;;
10418;SDS011;5256;48.728;9.140;2023-06-14T04:52:08;0.20;;;0.20;;
10418;SDS011;5256;48.728;9.140;2023-06-14T04:54:35;0.40;;;0.40;;
10418;SDS011;5256;48.728;9.140;2023-06-14T04:57:06;0.30;;;0.30;;
10418;SDS011;5256;48.728;9.140;2023-06-14T04:59:32;0.30;;;0.30;;
10418;SDS011;5256;48.728;9.140;2023-06-14T05:01:58;0.30;;;0.30;;
10418;SDS011;5256;48.728;9.140;2023-06-14T05:04:24;0.20;;;0.20;;
10418;SDS011;5256;48.728;9.140;2023-06-14T05:06:51;0.30;;;0.30;;
10418;SDS011;5256;48.728;9.140;2023-06-14T05:09:19;0.20;;;0.20;;
10418;SDS011;5256;48.728;9.140;2023-06-14T05:11:45;0.30;;;0.30;;
10418;SDS011;5256;48.728;9.140;2023-06-14T05:14:11;0.30;;;0.30;;
10418;SDS011;5256;48.728;9.140;2023-06-14T05:16:37;0.20;;;0.20;;
10418;SDS011;5256;48.728;9.140;2023-06-14T05:19:04;0.30;;;0.30;;
10418;SDS011;5256;48.728;9.140;2023-06-14T05:21:29;0.30;;;0.30;;
10418;SDS011;5256;48.728;9.140;2023-06-14T05:23:55;0.30;;;0.30;;
10418;SDS011;5256;48.728;9.140;2023-06-14T05:26:21;0.30;;;0.30;;
10418;SDS011;5256;48.728;9.140;2023-06-14T05:28:48;0.30;;;0.30;;
10418;SDS011;5256;48.728;9.140;2023-06-14T05:31:15;0.30;;;0.30;;
10418;SDS011;5256;48.728;9.140;2023-06-14T05:33:41;0.20;;;0.20;;
10418;SDS011;5256;48.728;9.140;2023-06-14T05:36:06;0.37;;;0.37;;
10418;SDS011;5256;48.728;9.140;2023-06-14T05:38:32;0.30;;;0.30;;
10418;SDS011;5256;48.728;9.140;2023-06-14T05:40:57;0.20;;;0.20;;
10418;SDS011;5256;48.728;9.140;2023-06-14T05:43:24;0.20;;;0.20;;
10418;SDS011;5256;48.728;9.140;2023-06-14T05:45:50;0.27;;;0.27;;
10418;SDS011;5256;48.728;9.140;2023-06-14T05:48:15;0.30;;;0.30;;
10418;SDS011;5256;48.728;9.140;2023-06-14T05:50:41;0.30;;;0.30;;
10418;SDS011;5256;48.728;9.140;2023-06-14T05:53:06;0.20;;;0.20;;
10418;SDS011;5256;48.728;9.140;2023-06-14T05:55:32;0.20;;;0.20;;
10418;SDS011;5256;48.728;9.140;2023-06-14T05:57:57;0.20;;;0.20;;
10418;SDS011;5256;48.728;9.140;2023-06-14T06:00:23;0.20;;;0.20;;
10418;SDS011;5256;48.728;9.140;2023-06-14T06:02:48;0.20;;;0.20;;
10418;SDS011;5256;48.728;9.140;2023-06-14T06:05:14;0.30;;;0.30;;
10418;SDS011;5256;48.728;9.140;2023-06-14T06:07:43;0.27;;;0.27;;
10418;SDS011;5256;48.728;9.140;2023-06-14T06:10:10;0.20;;;0.20;;
10418;SDS011;5256;48.728;9.140;2023-06-14T06:12:36;0.20;;;0.20;;
10418;SDS011;5256;48.728;9.140;2023-06-14T06:15:02;0.20;;;0.20;;
10418;SDS011;5256;48.728;9.140;2023-06-14T06:17:28;0.20;;;0.20;;
10418;SDS011;5256;48.728;9.140;2023-06-14T06:19:53;0.20;;;0.20;;
10418;SDS011;5256;48.728;9.140;2023-06-14T06:22:19;0.20;;;0.20;;
10418;SDS011;5256;48.728;9.140;2023-06-14T06:24:45;0.20;;;0.20;;
10418;SDS011;5256;48.728;9.140;2023-06-14T06:27:11;0.20;;;0.20;;
10418;SDS011;5256;48.728;9.140;2023-06-14T06:29:37;0.20;;;0.20;;
10418;SDS011;5256;48.728;9.140;2023-06-14T06:32:03;0.30;;;0.30;;
10418;SDS011;5256;48.728;9.140;2023-06-14T06:34:29;0.20;;;0.20;;
10418;SDS011;5256;48.728;9.140;2023-06-14T06:36:54;0.10;;;0.10;;
10418;SDS011;5256;48.728;9.140;2023-06-14T06:39:20;0.20;;;0.20;;
10418;SDS011;5256;48.728;9.140;2023-06-14T06:41:46;0.23;;;0.23;;
10418;SDS011;5256;48.728;9.140;2023-06-14T06:44:11;0.20;;;0.20;;
10418;SDS011;5256;48.728;9.140;2023-06-14T06:46:37;0.20;;;0.20;;
10418;SDS011;5256;48.728;9.140;2023-06-14T06:49:05;0.20;;;0.20;;
10418;SDS011;5256;48.728;9.140;2023-06-14T06:51:31;0.20;;;0.20;;
10418;SDS011;5256;48.728;9.140;2023-06-14T06:53:57;0.20;;;0.20;;
10418;SDS011;5256;48.728;9.140;2023-06-14T06:56:23;0.20;;;0.20;;
10418;SDS011;5256;48.728;9.140;2023-06-14T06:58:52;0.30;;;0.30;;
10418;SDS011;5256;48.728;9.140;2023-06-14T07:01:17;0.27;;;0.27;;
10418;SDS011;5256;48.728;9.140;2023-06-14T07:03:46;0.20;;;0.20;;
10418;SDS011;5256;48.728;9.140;2023-06-14T07:06:12;0.20;;;0.20;;
10418;SDS011;5256;48.728;9.140;2023-06-14T07:08:37;0.20;;;0.20;;
10418;SDS011;5256;48.728;9.140;2023-06-14T07:11:03;0.20;;;0.20;;
10418;SDS011;5256;48.728;9.140;2023-06-14T07:13:29;0.20;;;0.20;;
10418;SDS011;5256;48.728;9.140;2023-06-14T07:15:56;0.20;;;0.20;;
10418;SDS011;5256;48.728;9.140;2023-06-14T07:18:23;0.20;;;0.20;;
10418;SDS011;5256;48.728;9.140;2023-06-14T07:20:49;0.20;;;0.20;;
10418;SDS011;5256;48.728;9.140;2023-06-14T07:23:15;0.20;;;0.20;;
10418;SDS011;5256;48.728;9.140;2023-06-14T07:25:40;0.20;;;0.20;;
10418;SDS011;5256;48.728;9.140;2023-06-14T07:28:06;0.20;;;0.20;;
10418;SDS011;5256;48.728;9.140;2023-06-14T07:30:32;0.23;;;0.23;;
10418;SDS011;5256;48.728;9.140;2023-06-14T07:32:57;0.30;;;0.30;;
10418;SDS011;5256;48.728;9.140;2023-06-14T07:35:23;0.20;;;0.20;;
10418;SDS011;5256;48.728;9.140;2023-06-14T07:37:49;0.30;;;0.30;;
10418;SDS011;5256;48.728;9.140;2023-06-14T07:40:15;0.20;;;0.20;;
10418;SDS011;5256;48.728;9.140;2023-06-14T07:42:40;0.30;;;0.30;;
10418;SDS011;5256;48.728;9.140;2023-06-14T07:45:07;0.20;;;0.20;;
10418;SDS011;5256;48.728;9.140;2023-06-14T07:47:33;0.20;;;0.20;;
10418;SDS011;5256;48.728;9.140;2023-06-14T07:49:58;0.20;;;0.20;;
10418;SDS011;5256;48.728;9.140;2023-06-14T07:52:24;0.30;;;0.30;;
10418;SDS011;5256;48.728;9.140;2023-06-14T07:54:50;0.20;;;0.20;;
10418;SDS011;5256;48.728;9.140;2023-06-14T07:57:16;0.20;;;0.20;;
10418;SDS011;5256;48.728;9.140;2023-06-14T07:59:42;0.10;;;0.10;;
10418;SDS011;5256;48.728;9.140;2023-06-14T08:02:07;0.30;;;0.30;;
10418;SDS011;5256;48.728;9.140;2023-06-14T08:04:33;0.20;;;0.20;;
10418;SDS011;5256;48.728;9.140;2023-06-14T08:06:59;0.20;;;0.20;;
10418;SDS011;5256;48.728;9.140;2023-06-14T08:09:25;0.20;;;0.20;;
10418;SDS011;5256;48.728;9.140;2023-06-14T08:11:50;0.10;;;0.10;;
10418;SDS011;5256;48.728;9.140;2023-06-14T08:14:16;0.30;;;0.30;;
10418;SDS011;5256;48.728;9.140;2023-06-14T08:16:42;0.20;;;0.20;;
10418;SDS011;5256;48.728;9.140;2023-06-14T08:19:07;0.10;;;0.10;;
10418;SDS011;5256;48.728;9.140;2023-06-14T08:21:33;0.20;;;0.20;;
10418;SDS011;5256;48.728;9.140;2023-06-14T08:24:01;0.17;;;0.17;;
10418;SDS011;5256;48.728;9.140;2023-06-14T08:26:27;0.20;;;0.20;;
10418;SDS011;5256;48.728;9.140;2023-06-14T08:28:53;0.10;;;0.10;;
10418;SDS011;5256;48.728;9.140;2023-06-14T08:31:20;0.10;;;0.10;;
10418;SDS011;5256;48.728;9.140;2023-06-14T08:33:45;0.20;;;0.20;;
10418;SDS011;5256;48.728;9.140;2023-06-14T08:36:11;0.10;;;0.10;;
10418;SDS011;5256;48.728;9.140;2023-06-14T08:38:37;0.20;;;0.20;;
10418;SDS011;5256;48.728;9.140;2023-06-14T08:41:04;0.20;;;0.20;;
10418;SDS011;5256;48.728;9.140;2023-06-14T08:43:33;0.20;;;0.20;;
10418;SDS011;5256;48.728;9.140;2023-06-14T08:46:00;0.20;;;0.20;;
10418;SDS011;5256;48.728;9.140;2023-06-14T08:48:28;0.10;;;0.10;;
10418;SDS011;5256;48.728;9.140;2023-06-14T08:50:57;0.10;;;0.10;;
10418;SDS011;5256;48.728;9.140;2023-06-14T08:53:30;0.20;;;0.20;;
10418;SDS011;5256;48.728;9.140;2023-06-14T08:55:59;0.23;;;0.23;;
10418;SDS011;5256;48.728;9.140;2023-06-14T08:58:30;0.20;;;0.20;;
10418;SDS011;5256;48.728;9.140;2023-06-14T09:00:58;0.20;;;0.20;;
10418;SDS011;5256;48.728;9.140;2023-06-14T09:03:28;0.10;;;0.10;;
10418;SDS011;5256;48.728;9.140;2023-06-14T09:05:58;0.20;;;0.20;;
10418;SDS011;5256;48.728;9.140;2023-06-14T09:08:26;0.20;;;0.20;;
10418;SDS011;5256;48.728;9.140;2023-06-14T09:10:55;0.20;;;0.20;;
10418;SDS011;5256;48.728;9.140;2023-06-14T09:13:21;0.20;;;0.20;;
10418;SDS011;5256;48.728;9.140;2023-06-14T09:15:47;0.20;;;0.20;;
10418;SDS011;5256;48.728;9.140;2023-06-14T09:18:13;0.20;;;0.20;;
10418;SDS011;5256;48.728;9.140;2023-06-14T09:20:38;0.20;;;0.20;;
10418;SDS011;5256;48.728;9.140;2023-06-14T09:23:06;0.10;;;0.10;;
10418;SDS011;5256;48.728;9.140;2023-06-14T09:25:32;0.20;;;0.20;;
10418;SDS011;5256;48.728;9.140;2023-06-14T09:28:07;0.10;;;0.10;;
10418;SDS011;5256;48.728;9.140;2023-06-14T09:30:33;0.20;;;0.20;;
10418;SDS011;5256;48.728;9.140;2023-06-14T09:32:59;0.20;;;0.20;;
10418;SDS011;5256;48.728;9.140;2023-06-14T09:35:25;0.17;;;0.17;;
10418;SDS011;5256;48.728;9.140;2023-06-14T09:37:50;0.20;;;0.20;;
10418;SDS011;5256;48.728;9.140;2023-06-14T09:40:26;0.20;;;0.20;;
10418;SDS011;5256;48.728;9.140;2023-06-14T09:42:52;0.20;;;0.20;;
10418;SDS011;5256;48.728;9.140;2023-06-14T09:45:20;0.10;;;0.10;;
10418;SDS011;5256;48.728;9.140;2023-06-14T09:47:48;0.10;;;0.10;;
10418;SDS011;5256;48.728;9.140;2023-06-14T09:50:14;0.20;;;0.20;;
10418;SDS011;5256;48.728;9.140;2023-06-14T09:52:40;0.20;;;0.20;;
10418;SDS011;5256;48.728;9.140;2023-06-14T09:55:11;0.10;;;0.10;;
10418;SDS011;5256;48.728;9.140;2023-06-14T09:57:38;0.10;;;0.10;;
10418;SDS011;5256;48.728;9.140;2023-06-14T10:00:07;0.10;;;0.10;;
10418;SDS011;5256;48.728;9.140;2023-06-14T10:02:37;0.10;;;0.10;;
10418;SDS011;5256;48.728;9.140;2023-06-14T10:05:05;0.10;;;0.10;;
10418;SDS011;5256;48.728;9.140;2023-06-14T10:07:33;0.10;;;0.10;;
10418;SDS011;5256;48.728;9.140;2023-06-14T10:10:05;0.20;;;0.20;;
10418;SDS011;5256;48.728;9.140;2023-06-14T10:12:32;0.10;;;0.10;;
10418;SDS011;5256;48.728;9.140;2023-06-14T10:14:58;0.20;;;0.20;;
10418;SDS011;5256;48.728;9.140;2023-06-14T10:20:06;0.10;;;0.10;;
10418;SDS011;5256;48.728;9.140;2023-06-14T10:22:59;0.20;;;0.20;;
10418;SDS011;5256;48.728;9.140;2023-06-14T10:25:33;0.20;;;0.20;;
10418;SDS011;5256;48.728;9.140;2023-06-14T10:28:14;0.20;;;0.20;;
10418;SDS011;5256;48.728;9.140;2023-06-14T10:33:48;0.10;;;0.10;;
10418;SDS011;5256;48.728;9.140;2023-06-14T10:38:57;0.10;;;0.10;;
10418;SDS011;5256;48.728;9.140;2023-06-14T10:41:24;0.10;;;0.10;;
10418;SDS011;5256;48.728;9.140;2023-06-14T10:43:52;0.20;;;0.20;;
10418;SDS011;5256;48.728;9.140;2023-06-14T10:46:35;0.17;;;0.17;;
10418;SDS011;5256;48.728;9.140;2023-06-14T10:49:00;0.20;;;0.20;;
10418;SDS011;5256;48.728;9.140;2023-06-14T10:51:29;0.10;;;0.10;;
10418;SDS011;5256;48.728;9.140;2023-06-14T10:54:11;0.20;;;0.20;;
10418;SDS011;5256;48.728;9.140;2023-06-14T10:56:38;0.20;;;0.20;;
10418;SDS011;5256;48.728;9.140;2023-06-14T10:59:12;0.20;;;0.20;;
10418;SDS011;5256;48.728;9.140;2023-06-14T11:01:38;0.20;;;0.20;;
10418;SDS011;5256;48.728;9.140;2023-06-14T11:04:48;0.10;;;0.10;;
10418;SDS011;5256;48.728;9.140;2023-06-14T11:10:30;0.20;;;0.20;;
10418;SDS011;5256;48.728;9.140;2023-06-14T11:13:02;0.13;;;0.13;;
10418;SDS011;5256;48.728;9.140;2023-06-14T11:15:32;0.20;;;0.20;;
10418;SDS011;5256;48.728;9.140;2023-06-14T11:18:05;0.10;;;0.10;;
10418;SDS011;5256;48.728;9.140;2023-06-14T11:20:33;0.10;;;0.10;;
10418;SDS011;5256;48.728;9.140;2023-06-14T11:23:00;0.20;;;0.20;;
10418;SDS011;5256;48.728;9.140;2023-06-14T11:25:26;0.10;;;0.10;;
10418;SDS011;5256;48.728;9.140;2023-06-14T11:27:55;0.10;;;0.10;;
10418;SDS011;5256;48.728;9.140;2023-06-14T11:30:21;0.10;;;0.10;;
10418;SDS011;5256;48.728;9.140;2023-06-14T11:32:47;0.10;;;0.10;;
10418;SDS011;5256;48.728;9.140;2023-06-14T11:35:15;0.10;;;0.10;;
10418;SDS011;5256;48.728;9.140;2023-06-14T11:37:41;0.10;;;0.10;;
10418;SDS011;5256;48.728;9.140;2023-06-14T11:40:08;0.20;;;0.20;;
10418;SDS011;5256;48.728;9.140;2023-06-14T11:42:35;0.10;;;0.10;;
10418;SDS011;5256;48.728;9.140;2023-06-14T11:45:01;0.10;;;0.10;;
10418;SDS011;5256;48.728;9.140;2023-06-14T11:47:34;0.20;;;0.20;;
10418;SDS011;5256;48.728;9.140;2023-06-14T11:50:01;0.20;;;0.20;;
10418;SDS011;5256;48.728;9.140;2023-06-14T11:52:31;0.10;;;0.10;;
10418;SDS011;5256;48.728;9.140;2023-06-14T11:54:57;0.20;;;0.20;;
10418;SDS011;5256;48.728;9.140;2023-06-14T11:57:23;0.20;;;0.20;;
10418;SDS011;5256;48.728;9.140;2023-06-14T11:59:50;0.20;;;0.20;;
10418;SDS011;5256;48.728;9.140;2023-06-14T12:02:16;0.20;;;0.20;;
10418;SDS011;5256;48.728;9.140;2023-06-14T12:04:42;0.10;;;0.10;;
10418;SDS011;5256;48.728;9.140;2023-06-14T12:07:14;0.10;;;0.10;;
10418;SDS011;5256;48.728;9.140;2023-06-14T12:09:42;0.10;;;0.10;;
10418;SDS011;5256;48.728;9.140;2023-06-14T12:12:28;0.30;;;0.30;;
10418;SDS011;5256;48.728;9.140;2023-06-14T12:14:54;0.20;;;0.20;;
10418;SDS011;5256;48.728;9.140;2023-06-14T12:17:21;0.20;;;0.20;;
10418;SDS011;5256;48.728;9.140;2023-06-14T12:19:48;0.10;;;0.10;;
10418;SDS011;5256;48.728;9.140;2023-06-14T12:22:15;0.20;;;0.20;;
10418;SDS011;5256;48.728;9.140;2023-06-14T12:24:45;0.10;;;0.10;;
10418;SDS011;5256;48.728;9.140;2023-06-14T12:27:11;0.20;;;0.20;;
10418;SDS011;5256;48.728;9.140;2023-06-14T12:29:41;0.17;;;0.17;;
10418;SDS011;5256;48.728;9.140;2023-06-14T12:32:08;0.27;;;0.27;;
10418;SDS011;5256;48.728;9.140;2023-06-14T12:34:34;0.10;;;0.10;;
10418;SDS011;5256;48.728;9.140;2023-06-14T12:37:00;0.17;;;0.17;;
10418;SDS011;5256;48.728;9.140;2023-06-14T12:39:26;0.20;;;0.20;;
10418;SDS011;5256;48.728;9.140;2023-06-14T12:41:52;0.20;;;0.20;;
10418;SDS011;5256;48.728;9.140;2023-06-14T12:44:19;0.20;;;0.20;;
10418;SDS011;5256;48.728;9.140;2023-06-14T12:46:45;0.20;;;0.20;;
10418;SDS011;5256;48.728;9.140;2023-06-14T12:49:12;0.20;;;0.20;;
10418;SDS011;5256;48.728;9.140;2023-06-14T12:51:38;0.10;;;0.10;;
10418;SDS011;5256;48.728;9.140;2023-06-14T12:54:05;0.20;;;0.20;;
10418;SDS011;5256;48.728;9.140;2023-06-14T12:56:31;0.20;;;0.20;;
10418;SDS011;5256;48.728;9.140;2023-06-14T12:58:57;0.20;;;0.20;;
10418;SDS011;5256;48.728;9.140;2023-06-14T13:01:23;0.10;;;0.10;;
10418;SDS011;5256;48.728;9.140;2023-06-14T13:03:49;0.10;;;0.10;;
10418;SDS011;5256;48.728;9.140;2023-06-14T13:06:15;0.20;;;0.20;;
10418;SDS011;5256;48.728;9.140;2023-06-14T13:08:41;0.20;;;0.20;;
10418;SDS011;5256;48.728;9.140;2023-06-14T13:11:07;0.20;;;0.20;;
10418;SDS011;5256;48.728;9.140;2023-06-14T13:13:32;0.17;;;0.17;;
10418;SDS011;5256;48.728;9.140;2023-06-14T13:15:58;0.20;;;0.20;;
10418;SDS011;5256;48.728;9.140;2023-06-14T13:18:23;0.30;;;0.30;;
10418;SDS011;5256;48.728;9.140;2023-06-14T13:20:49;0.13;;;0.13;;
10418;SDS011;5256;48.728;9.140;2023-06-14T13:23:15;0.10;;;0.10;;
10418;SDS011;5256;48.728;9.140;2023-06-14T13:25:41;0.10;;;0.10;;
10418;SDS011;5256;48.728;9.140;2023-06-14T13:28:07;0.20;;;0.20;;
10418;SDS011;5256;48.728;9.140;2023-06-14T13:30:32;0.20;;;0.20;;
10418;SDS011;5256;48.728;9.140;2023-06-14T13:32:59;0.10;;;0.10;;
10418;SDS011;5256;48.728;9.140;2023-06-14T13:35:25;0.20;;;0.20;;
10418;SDS011;5256;48.728;9.140;2023-06-14T13:37:52;0.10;;;0.10;;
10418;SDS011;5256;48.728;9.140;2023-06-14T13:40:17;0.20;;;0.20;;
10418;SDS011;5256;48.728;9.140;2023-06-14T13:42:43;0.20;;;0.20;;
10418;SDS011;5256;48.728;9.140;2023-06-14T13:45:10;0.20;;;0.20;;
10418;SDS011;5256;48.728;9.140;2023-06-14T13:47:36;0.20;;;0.20;;
10418;SDS011;5256;48.728;9.140;2023-06-14T13:50:03;0.20;;;0.20;;
10418;SDS011;5256;48.728;9.140;2023-06-14T13:52:29;0.30;;;0.30;;
10418;SDS011;5256;48.728;9.140;2023-06-14T13:54:54;0.20;;;0.20;;
10418;SDS011;5256;48.728;9.140;2023-06-14T13:57:20;0.10;;;0.10;;
10418;SDS011;5256;48.728;9.140;2023-06-14T13:59:46;0.20;;;0.20;;
10418;SDS011;5256;48.728;9.140;2023-06-14T14:02:12;0.10;;;0.10;;
10418;SDS011;5256;48.728;9.140;2023-06-14T14:04:38;0.10;;;0.10;;
10418;SDS011;5256;48.728;9.140;2023-06-14T14:07:04;0.10;;;0.10;;
10418;SDS011;5256;48.728;9.140;2023-06-14T14:09:31;0.10;;;0.10;;
10418;SDS011;5256;48.728;9.140;2023-06-14T14:11:57;0.10;;;0.10;;
10418;SDS011;5256;48.728;9.140;2023-06-14T14:14:23;0.00;;;0.00;;
10418;SDS011;5256;48.728;9.140;2023-06-14T14:16:49;0.10;;;0.10;;
10418;SDS011;5256;48.728;9.140;2023-06-14T14:19:16;0.10;;;0.10;;
10418;SDS011;5256;48.728;9.140;2023-06-14T14:21:44;0.10;;;0.10;;
10418;SDS011;5256;48.728;9.140;2023-06-14T14:24:10;0.10;;;0.10;;
10418;SDS011;5256;48.728;9.140;2023-06-14T14:26:36;0.10;;;0.10;;
10418;SDS011;5256;48.728;9.140;2023-06-14T14:29:01;0.10;;;0.10;;
10418;SDS011;5256;48.728;9.140;2023-06-14T14:31:27;0.10;;;0.10;;
10418;SDS011;5256;48.728;9.140;2023-06-14T14:33:53;0.10;;;0.10;;
10418;SDS011;5256;48.728;9.140;2023-06-14T14:36:19;0.00;;;0.00;;
10418;SDS011;5256;48.728;9.140;2023-06-14T14:38:45;0.10;;;0.10;;
10418;SDS011;5256;48.728;9.140;2023-06-14T14:41:12;0.10;;;0.10;;
10418;SDS011;5256;48.728;9.140;2023-06-14T14:43:37;0.00;;;0.00;;
10418;SDS011;5256;48.728;9.140;2023-06-14T14:46:03;0.10;;;0.10;;
10418;SDS011;5256;48.728;9.140;2023-06-14T14:48:29;0.10;;;0.10;;
10418;SDS011;5256;48.728;9.140;2023-06-14T14:50:54;0.10;;;0.10;;
10418;SDS011;5256;48.728;9.140;2023-06-14T14:53:20;0.10;;;0.10;;
10418;SDS011;5256;48.728;9.140;2023-06-14T14:55:45;0.10;;;0.10;;
10418;SDS011;5256;48.728;9.140;2023-06-14T14:58:11;0.10;;;0.10;;
10418;SDS011;5256;48.728;9.140;2023-06-14T15:00:37;0.10;;;0.10;;
10418;SDS011;5256;48.728;9.140;2023-06-14T15:03:03;0.10;;;0.10;;
10418;SDS011;5256;48.728;9.140;2023-06-14T15:05:28;0.10;;;0.10;;
10418;SDS011;5256;48.728;9.140;2023-06-14T15:07:54;0.10;;;0.10;;
10418;SDS011;5256;48.728;9.140;2023-06-14T15:10:20;0.13;;;0.13;;
10418;SDS011;5256;48.728;9.140;2023-06-14T15:12:45;0.10;;;0.10;;
10418;SDS011;5256;48.728;9.140;2023-06-14T15:15:11;0.10;;;0.10;;